< Typhoon 196910 1969 Season Typhoon 196912 >
Typhoon 196911 (ELSIE)
General InformationTrack Information on Google Maps || Disaster Info.ResourceGoogle EarthGE AnimationAtom FeedGeoJSON
Detalied Best Track (Time Zone = UTC)
Year Month Day Hour Lat. Long. Pressure (hPa) Wind (kt) Class Image Chart
1969 9 16 00 15.0 165.0 1010 0 2 -- Chart
1969 9 16 06 15.2 165.0 1008 0 2 -- Chart
1969 9 16 12 15.4 165.0 1008 0 2 -- Chart
1969 9 16 18 15.7 165.0 1008 0 2 -- Chart
1969 9 17 00 16.0 165.0 1008 0 2 -- Chart
1969 9 17 06 16.3 164.9 1008 0 2 -- Chart
1969 9 17 12 16.6 164.7 1008 0 2 -- Chart
1969 9 17 18 16.8 164.5 1006 0 2 -- Chart
1969 9 18 00 17.1 164.3 1004 0 2 -- Chart
1969 9 18 06 17.2 164.3 1000 0 2 -- Chart
1969 9 18 12 17.4 164.3 1000 0 2 -- Chart
1969 9 18 18 17.6 164.3 1000 0 2 -- Chart
1969 9 19 00 17.7 164.3 1000 0 2 -- Chart
1969 9 19 06 18.2 164.0 1000 0 2 -- Chart
1969 9 19 12 18.3 163.2 995 0 2 -- Chart
1969 9 19 18 18.1 162.5 990 0 2 -- Chart
1969 9 20 00 17.7 162.0 985 0 2 -- Chart
1969 9 20 06 17.2 161.4 980 0 9 -- Chart
1969 9 20 12 16.7 160.3 975 0 9 -- Chart
1969 9 20 18 16.7 158.8 975 0 9 -- Chart
1969 9 21 00 16.7 157.4 970 0 9 -- Chart
1969 9 21 06 16.5 155.7 960 0 9 -- Chart
1969 9 21 12 16.5 154.4 955 0 9 -- Chart
1969 9 21 18 16.5 153.1 950 0 9 -- Chart
1969 9 22 00 16.6 151.5 940 0 9 -- Chart
1969 9 22 06 16.7 149.7 930 0 9 -- Chart
1969 9 22 12 17.0 147.9 920 0 9 -- Chart
1969 9 22 18 17.4 146.5 910 0 9 -- Chart
1969 9 23 00 17.9 144.9 900 0 9 -- Chart
1969 9 23 06 18.3 142.9 895 0 9 -- Chart
1969 9 23 12 18.7 141.5 895 0 9 -- Chart
1969 9 23 18 19.4 139.8 895 0 9 -- Chart
1969 9 24 00 20.0 137.9 895 0 9 -- Chart
1969 9 24 06 20.6 136.3 895 0 9 -- Chart
1969 9 24 12 21.1 134.9 905 0 9 -- Chart
1969 9 24 18 21.7 133.3 910 0 9 -- Chart
1969 9 25 00 22.2 132.0 920 0 9 -- Chart
1969 9 25 06 22.7 130.7 920 0 9 -- Chart
1969 9 25 12 23.0 129.0 925 0 9 -- Chart
1969 9 25 18 23.3 127.4 925 0 9 -- Chart
1969 9 26 00 23.5 126.0 925 0 9 -- Chart
1969 9 26 06 23.7 124.8 925 0 9 -- Chart
1969 9 26 12 24.0 123.0 925 0 9 -- Chart
1969 9 26 18 24.0 121.3 945 0 9 -- Chart
1969 9 27 00 24.4 120.1 960 0 9 -- Chart
1969 9 27 06 24.9 118.9 965 0 9 -- Chart
1969 9 27 12 25.3 117.5 980 0 9 -- Chart
1969 9 27 18 25.9 116.3 994 0 2 -- Chart
1969 9 28 00 26.9 115.4 1000 0 2 -- Chart
1969 9 28 06 28.0 116.0 1004 0 6 -- Chart
1969 9 28 12 29.2 116.5 1006 0 6 -- Chart
1969 9 28 18 30.5 117.1 1008 0 6 -- Chart
1969 9 29 00 31.1 118.0 1010 0 6 -- Chart
1969 9 29 06 32.6 119.1 1008 0 6 -- Chart
1969 9 29 12 33.1 120.3 1008 0 6 -- Chart
1969 9 29 18 33.1 122.0 1008 0 6 -- Chart
1969 9 30 00 33.0 124.0 1008 0 6 -- Chart
1969 9 30 06 33.5 127.0 1004 0 6 -- Chart
1969 9 30 12 34.0 128.1 1004 0 6 -- Chart
1969 9 30 18 36.0 132.0 1002 0 6 -- Chart
1969 10 1 00 38.0 134.0 1002 0 6 -- Chart
1969 10 1 06 40.0 136.0 998 0 6 -- Chart
1969 10 1 12 43.0 138.5 994 0 6 -- Chart
1969 10 1 18 46.0 141.0 988 0 6 -- Chart
1969 10 2 00 48.0 142.0 980 0 6 -- Chart
1969 10 2 06 49.0 145.0 984 0 6 -- Chart
1969 10 2 12 49.5 148.0 984 0 6 -- Chart
1969 10 2 18 50.0 152.0 986 0 6 -- Chart
1969 10 3 00 50.9 156.0 986 0 6 -- Chart
1969 10 3 06 51.2 158.5 984 0 6 -- Chart
1969 10 3 12 51.7 161.6 982 0 6 -- Chart
1969 10 3 18 51.8 164.5 982 0 6 -- Chart
1969 10 4 00 52.0 169.0 982 0 6 -- Chart
1969 10 4 06 51.0 174.1 984 0 6 -- Chart
Japan Meteorological Agency Best Track Data | Correction Date : 1990-10-17
< Typhoon 196910 1969 Season Typhoon 196912 >

Help